Daventry, United Kingdom
Current Conditions -  °F | °C
As of 12:20 AM on Thursday 29 Jan 2015 (Local Time) from EGBE Reporting Station
Snow Showers Snow Showers  
Wind Chill: 27°   Ceiling: Unl
Heat Index: 37°   Visibility: 6mi
Dew Point: 32°   Wind: 22mph
Humidity: 81%   Direction: 240°WSW
Pressure: 29.35"   Gusts: NA
Location:  52.26°N, 1.16°W
Report Text: EGBE 290020Z 24019KT 9999 -SHSN FEW018 03/00 Q0994
Loading
Personal Weather Stations






























Interactive Weather Map New forecast layout! Learn more

10-Day Weather Forecast

Advertisements
Track Severe Weather on mobile